Time;durP1;ratioP1;P1;durP2;ratioP2;P2;SDS_P1;SDS_P2;PMS_P1;PMS_P2;Temp;Humidity;BMP_temperature;BMP_pressure;BME280_temperature;BME280_humidity;BME280_pressure;Samples;Min_cycle;Max_cycle;Signal;HPM_P1;HPM_P2
2022/10/25 00:00:15;;;;;;;2.38;1.05;;;24.60;98.30;;;;;;5028468;28;20046;-63
2022/10/25 00:02:43;;;;;;;7.05;1.27;;;24.70;97.80;;;;;;5027821;28;20021;-65
2022/10/25 00:05:15;;;;;;;5.28;1.35;;;24.80;97.50;;;;;;5035172;28;20021;-64
2022/10/25 00:07:42;;;;;;;1.80;1.10;;;25.30;97.70;;;;;;5036256;28;20025;-67
2022/10/25 00:10:10;;;;;;;2.33;1.10;;;25.50;96.30;;;;;;5027268;28;20367;-66
2022/10/25 00:12:46;;;;;;;3.00;1.33;;;25.70;96.10;;;;;;5012850;28;20025;-71
2022/10/25 00:15:14;;;;;;;6.03;1.30;;;25.90;95.30;;;;;;5035888;28;20029;-72
2022/10/25 00:17:42;;;;;;;2.63;1.20;;;26.30;96.60;;;;;;5027351;28;20083;-71
2022/10/25 00:20:11;;;;;;;6.40;1.52;;;26.70;93.10;;;;;;5034382;28;20060;-72
2022/10/25 00:22:38;;;;;;;3.50;1.13;;;27.00;93.30;;;;;;5027963;28;20021;-72
2022/10/25 00:25:07;;;;;;;2.40;1.25;;;27.50;93.50;;;;;;5030334;28;20457;-72
2022/10/25 00:27:35;;;;;;;2.85;1.38;;;28.00;91.00;;;;;;5023147;28;20029;-72
2022/10/25 00:30:04;;;;;;;1.95;0.93;;;28.20;90.30;;;;;;5028047;28;20108;-70
2022/10/25 00:32:32;;;;;;;3.17;1.10;;;28.50;87.50;;;;;;5027874;28;20036;-69
2022/10/25 00:34:59;;;;;;;2.80;1.20;;;28.50;85.90;;;;;;5027501;28;20636;-71
2022/10/25 00:37:27;;;;;;;3.92;1.30;;;28.50;86.00;;;;;;5037710;28;20115;-70
2022/10/25 00:39:55;;;;;;;1.10;1.00;;;28.50;83.90;;;;;;5043403;28;20032;-69
2022/10/25 00:42:26;;;;;;;4.00;1.10;;;28.40;85.20;;;;;;5042906;28;20391;-71
2022/10/25 00:45:00;;;;;;;4.72;1.50;;;28.30;87.10;;;;;;5029961;28;20052;-68
2022/10/25 00:47:33;;;;;;;2.63;0.93;;;28.50;82.60;;;;;;5029473;28;20037;-67
2022/10/25 00:50:13;;;;;;;2.85;1.15;;;28.60;86.60;;;;;;5029445;28;20076;-67
2022/10/25 00:52:42;;;;;;;2.50;1.00;;;28.60;86.40;;;;;;5013653;28;20045;-68
2022/10/25 00:55:11;;;;;;;2.05;1.15;;;28.70;83.60;;;;;;5026276;28;20026;-67
2022/10/25 00:57:46;;;;;;;1.73;1.17;;;29.20;86.50;;;;;;5026823;28;20029;-68
2022/10/25 01:00:14;;;;;;;2.38;1.20;;;29.50;84.30;;;;;;5027787;28;20588;-68
2022/10/25 01:02:42;;;;;;;1.83;1.00;;;29.70;78.00;;;;;;5034787;28;20029;-66
2022/10/25 01:05:10;;;;;;;1.27;0.90;;;29.60;74.80;;;;;;5035761;28;20136;-67
2022/10/25 01:07:38;;;;;;;1.48;1.02;;;29.30;79.90;;;;;;5031896;28;20156;-68
2022/10/25 01:10:06;;;;;;;4.25;1.10;;;29.20;76.40;;;;;;5025830;28;20052;-65
2022/10/25 01:12:34;;;;;;;3.83;1.10;;;29.10;81.70;;;;;;5030211;28;20036;-66
2022/10/25 01:15:02;;;;;;;1.30;0.80;;;29.10;80.80;;;;;;5029134;28;20053;-67
2022/10/25 01:17:57;;;;;;;4.18;1.10;;;29.00;81.30;;;;;;5028897;28;20048;-67
2022/10/25 01:20:42;;;;;;;6.22;1.05;;;29.00;81.90;;;;;;5032170;28;20575;-66
2022/10/25 01:23:42;;;;;;;1.90;0.82;;;28.80;78.50;;;;;;5029246;28;20136;-66
2022/10/25 01:26:38;;;;;;;1.90;1.00;;;28.70;78.60;;;;;;5026719;28;20072;-65
2022/10/25 01:29:25;;;;;;;1.95;1.30;;;28.80;81.90;;;;;;5031367;28;20634;-66
2022/10/25 01:32:11;;;;;;;2.67;1.40;;;28.70;80.80;;;;;;5042193;28;20041;-65
2022/10/25 01:34:53;;;;;;;3.75;1.25;;;28.70;77.30;;;;;;5031273;28;20029;-65
2022/10/25 01:37:27;;;;;;;5.20;1.98;;;28.70;77.40;;;;;;5034567;28;20116;-68
2022/10/25 01:40:34;;;;;;;8.05;3.42;;;28.60;79.10;;;;;;5029668;28;20025;-66
2022/10/25 01:43:16;;;;;;;3.63;1.60;;;28.20;80.70;;;;;;5030890;28;20025;-65
2022/10/25 01:45:55;;;;;;;1.92;1.27;;;27.70;83.90;;;;;;5035426;28;20022;-66
2022/10/25 01:48:30;;;;;;;4.63;1.50;;;27.80;84.50;;;;;;5032535;28;20464;-65
2022/10/25 01:51:08;;;;;;;3.10;1.40;;;27.70;85.20;;;;;;5033063;28;20029;-65
2022/10/25 01:53:45;;;;;;;4.03;1.00;;;27.90;82.80;;;;;;5030900;28;20103;-64
2022/10/25 01:56:23;;;;;;;4.55;1.40;;;27.80;82.30;;;;;;5033852;28;20029;-65
2022/10/25 01:59:11;;;;;;;6.03;1.60;;;28.10;87.80;;;;;;5033802;28;20029;-65
2022/10/25 02:01:53;;;;;;;3.28;1.25;;;28.50;84.10;;;;;;5031962;28;20025;-62
2022/10/25 02:04:30;;;;;;;3.70;1.20;;;28.60;80.40;;;;;;5035498;28;20370;-62
2022/10/25 02:07:10;;;;;;;3.40;1.40;;;28.60;76.90;;;;;;5038601;28;20056;-61
2022/10/25 02:10:03;;;;;;;4.65;1.20;;;28.20;80.20;;;;;;5034007;28;20025;-62
2022/10/25 02:12:40;;;;;;;2.83;1.52;;;28.20;82.00;;;;;;5031266;28;20044;-62
2022/10/25 02:15:19;;;;;;;7.10;2.78;;;28.30;79.60;;;;;;5029414;28;20029;-62
2022/10/25 02:17:59;;;;;;;2.50;1.65;;;28.00;80.80;;;;;;5035092;28;20072;-62
2022/10/25 02:20:29;;;;;;;10.80;2.00;;;28.00;82.10;;;;;;5032187;28;20040;-61
2022/10/25 02:22:58;;;;;;;3.67;2.15;;;28.10;82.30;;;;;;5044593;28;20025;-62
2022/10/25 02:25:26;;;;;;;3.78;1.73;;;28.10;79.80;;;;;;5037696;28;20036;-62
2022/10/25 02:27:54;;;;;;;2.88;1.48;;;28.00;80.90;;;;;;5035255;28;20108;-62
2022/10/25 02:30:22;;;;;;;3.33;1.55;;;28.00;82.10;;;;;;5038798;28;20076;-61
2022/10/25 02:32:49;;;;;;;2.55;1.40;;;28.10;82.80;;;;;;5036778;28;20033;-61
2022/10/25 02:35:18;;;;;;;3.97;2.13;;;28.20;82.80;;;;;;5030373;28;20560;-62
2022/10/25 02:37:46;;;;;;;7.63;1.73;;;28.40;78.00;;;;;;5035160;28;20028;-62
2022/10/25 02:40:13;;;;;;;5.75;1.98;;;28.60;75.60;;;;;;5030336;28;20029;-60
2022/10/25 02:42:41;;;;;;;4.78;2.05;;;28.50;79.20;;;;;;5029371;28;20034;-61
2022/10/25 02:45:09;;;;;;;5.82;1.70;;;28.70;77.50;;;;;;5028856;28;20025;-60
2022/10/25 02:47:36;;;;;;;4.25;1.70;;;29.00;74.50;;;;;;5041920;28;20068;-61
2022/10/25 02:50:04;;;;;;;3.70;1.95;;;29.20;75.60;;;;;;5030885;28;20029;-63
2022/10/25 02:52:32;;;;;;;3.88;2.13;;;29.50;72.30;;;;;;5013765;28;20479;-63
2022/10/25 02:54:59;;;;;;;5.40;2.10;;;29.30;75.00;;;;;;5028848;28;20037;-63
2022/10/25 02:57:33;;;;;;;7.72;2.45;;;29.60;78.60;;;;;;5029073;28;20144;-63
2022/10/25 03:00:01;;;;;;;5.50;2.83;;;30.00;79.20;;;;;;5029330;28;20112;-64
2022/10/25 03:02:28;;;;;;;7.38;3.10;;;30.10;69.10;;;;;;5028603;28;20536;-62
2022/10/25 03:04:55;;;;;;;5.75;2.13;;;30.10;75.40;;;;;;5026414;28;20045;-65
2022/10/25 03:07:23;;;;;;;4.03;2.03;;;30.30;72.60;;;;;;5021465;28;20037;-63
2022/10/25 03:09:50;;;;;;;3.58;1.58;;;30.30;68.50;;;;;;5029231;28;20025;-63
2022/10/25 03:12:18;;;;;;;2.17;1.23;;;30.10;66.40;;;;;;5032835;28;20037;-63
2022/10/25 03:14:45;;;;;;;2.20;1.33;;;29.70;70.30;;;;;;5033534;28;20044;-62
2022/10/25 03:17:12;;;;;;;6.53;1.45;;;29.20;70.10;;;;;;5035674;28;20025;-64
2022/10/25 03:19:40;;;;;;;2.15;1.42;;;29.10;71.40;;;;;;5027035;28;20033;-63
2022/10/25 03:22:07;;;;;;;2.35;1.38;;;29.30;74.70;;;;;;5036562;28;20021;-63
2022/10/25 03:24:35;;;;;;;2.63;1.80;;;29.40;74.00;;;;;;5040302;28;20027;-63
2022/10/25 03:27:02;;;;;;;4.55;2.20;;;29.80;76.80;;;;;;5036202;28;20025;-63
2022/10/25 03:29:29;;;;;;;5.45;2.05;;;30.20;72.60;;;;;;5028885;28;20029;-64
2022/10/25 03:31:57;;;;;;;3.65;1.95;;;30.40;68.00;;;;;;5030740;28;20061;-63
2022/10/25 03:34:24;;;;;;;3.40;1.65;;;30.30;68.20;;;;;;5026101;28;20033;-65
2022/10/25 03:36:51;;;;;;;3.25;1.73;;;30.30;68.80;;;;;;5028137;28;20113;-64
2022/10/25 03:39:19;;;;;;;11.32;2.28;;;30.30;69.60;;;;;;5035808;28;20021;-63
2022/10/25 03:41:46;;;;;;;3.35;1.48;;;30.50;72.00;;;;;;5029162;28;20057;-64
2022/10/25 03:44:14;;;;;;;2.03;1.40;;;30.40;67.90;;;;;;5029751;28;20056;-63
2022/10/25 03:46:41;;;;;;;2.58;1.70;;;30.50;66.50;;;;;;5030876;28;20029;-64
2022/10/25 03:49:09;;;;;;;3.75;1.55;;;30.70;68.40;;;;;;5028002;28;20024;-65
2022/10/25 03:51:36;;;;;;;4.63;1.90;;;31.10;67.10;;;;;;5034467;28;20124;-64
2022/10/25 03:54:04;;;;;;;2.67;1.70;;;31.30;58.90;;;;;;5037700;28;20108;-65
2022/10/25 03:56:31;;;;;;;2.97;1.55;;;30.80;59.50;;;;;;5031581;28;20114;-64
2022/10/25 03:58:59;;;;;;;1.70;1.20;;;30.70;64.90;;;;;;5031172;28;20021;-64
2022/10/25 04:01:26;;;;;;;2.45;1.70;;;30.70;63.50;;;;;;5025434;28;20026;-64
2022/10/25 04:03:53;;;;;;;1.70;1.42;;;30.90;64.40;;;;;;5027640;28;20022;-64
2022/10/25 04:06:21;;;;;;;2.20;1.20;;;31.00;62.50;;;;;;5029330;28;20143;-63
2022/10/25 04:08:48;;;;;;;2.95;1.58;;;31.10;62.50;;;;;;5028466;28;20029;-64
2022/10/25 04:11:16;;;;;;;2.38;1.50;;;30.80;61.50;;;;;;5027012;28;20055;-64
2022/10/25 04:13:43;;;;;;;3.50;1.90;;;30.40;63.40;;;;;;5027465;28;20038;-61
2022/10/25 04:16:11;;;;;;;5.68;1.58;;;29.80;63.90;;;;;;5026970;28;20501;-61
2022/10/25 04:18:38;;;;;;;2.35;1.63;;;29.50;64.70;;;;;;5033296;28;20023;-61
2022/10/25 04:21:06;;;;;;;1.60;1.30;;;29.10;65.90;;;;;;5040443;28;20048;-61
2022/10/25 04:23:33;;;;;;;2.15;1.50;;;28.70;67.30;;;;;;5029645;28;20496;-61
2022/10/25 04:26:01;;;;;;;4.13;1.83;;;28.50;69.90;;;;;;5045580;28;20505;-61
2022/10/25 04:28:28;;;;;;;5.38;2.50;;;28.10;71.10;;;;;;5030924;28;20524;-61
2022/10/25 04:30:56;;;;;;;7.93;1.42;;;27.80;74.10;;;;;;5035213;28;20429;-61
2022/10/25 04:33:23;;;;;;;2.78;0.80;;;27.40;71.00;;;;;;5034470;28;20033;-60
2022/10/25 04:35:58;;;;;;;4.75;1.02;;;26.20;81.30;;;;;;5041635;28;20033;-59
2022/10/25 04:38:25;;;;;;;9.48;1.63;;;24.60;91.10;;;;;;5026688;28;20071;-59
2022/10/25 04:41:00;;;;;;;11.80;2.30;;;23.10;97.00;;;;;;5032277;28;20283;-58
2022/10/25 04:43:28;;;;;;;7.60;2.53;;;21.70;99.90;;;;;;5025793;28;20075;-58
2022/10/25 04:45:58;;;;;;;13.50;2.38;;;20.80;99.90;;;;;;5028122;28;20029;-59
2022/10/25 04:48:26;;;;;;;5.65;2.58;;;20.30;99.90;;;;;;5058108;28;20260;-59
2022/10/25 04:50:53;;;;;;;5.50;1.95;;;20.00;99.90;;;;;;5022416;28;20064;-59
2022/10/25 04:53:20;;;;;;;10.43;2.47;;;19.80;99.90;;;;;;5027195;28;20037;-59
2022/10/25 04:56:20;;;;;;;6.78;1.73;;;19.50;99.90;;;;;;5025318;28;20417;-59
2022/10/25 04:58:47;;;;;;;9.43;2.78;;;19.30;99.90;;;;;;5036574;28;20371;-59
2022/10/25 05:01:17;;;;;;;6.57;2.50;;;19.20;99.90;;;;;;5026899;28;20101;-59
2022/10/25 05:03:44;;;;;;;10.25;2.28;;;19.20;99.90;;;;;;5026277;28;20021;-61
2022/10/25 05:06:21;;;;;;;8.95;2.40;;;19.30;99.90;;;;;;5032268;28;20025;-59
2022/10/25 05:08:50;;;;;;;4.88;2.08;;;19.30;99.90;;;;;;5031174;28;20026;-60
2022/10/25 05:11:20;;;;;;;5.57;2.00;;;19.40;99.90;;;;;;5021570;28;20064;-60
2022/10/25 05:13:47;;;;;;;5.35;2.60;;;19.40;99.90;;;;;;5024759;28;20030;-60
2022/10/25 05:16:22;;;;;;;7.75;2.72;;;19.60;99.90;;;;;;5026055;28;20104;-60
2022/10/25 05:18:49;;;;;;;;;;;19.70;99.90;;;;;;5035322;28;20482;-59
2022/10/25 05:21:17;;;;;;;5.15;2.40;;;19.80;99.90;;;;;;5042836;28;19909;-60
2022/10/25 05:23:46;;;;;;;16.83;4.00;;;20.00;99.90;;;;;;5026246;28;20033;-60
2022/10/25 05:26:17;;;;;;;6.90;3.92;;;20.10;99.90;;;;;;5032516;28;20017;-60
2022/10/25 05:28:46;;;;;;;10.20;3.40;;;20.20;99.90;;;;;;5037921;28;20477;-59
2022/10/25 05:31:22;;;;;;;8.13;3.40;;;20.50;99.90;;;;;;5024489;28;20042;-59
2022/10/25 05:33:52;;;;;;;4.00;2.50;;;20.70;99.90;;;;;;5033025;28;20375;-59
2022/10/25 05:36:19;;;;;;;6.05;2.70;;;21.00;99.90;;;;;;5032478;28;20026;-59
2022/10/25 05:38:47;;;;;;;9.38;3.03;;;21.30;99.90;;;;;;5030874;28;20108;-59
2022/10/25 05:41:16;;;;;;;7.50;2.22;;;21.60;99.90;;;;;;5028229;28;20048;-59
2022/10/25 05:43:44;;;;;;;4.63;2.00;;;22.00;99.90;;;;;;5030192;28;20028;-59
2022/10/25 05:46:20;;;;;;;4.03;1.73;;;22.40;99.90;;;;;;5029911;28;20025;-59
2022/10/25 05:48:49;;;;;;;7.93;1.90;;;22.80;99.90;;;;;;5033628;28;20466;-61
2022/10/25 05:51:18;;;;;;;4.15;2.10;;;23.00;99.90;;;;;;5030145;28;20064;-60
2022/10/25 05:53:48;;;;;;;5.43;1.55;;;23.40;99.90;;;;;;5035361;28;20423;-60
2022/10/25 05:56:16;;;;;;;4.70;1.55;;;23.60;99.90;;;;;;5039066;28;20037;-60
2022/10/25 05:58:45;;;;;;;7.07;1.92;;;23.80;99.90;;;;;;5030019;28;20021;-60
2022/10/25 06:01:15;;;;;;;4.18;1.88;;;23.80;99.90;;;;;;5033915;28;20028;-61
2022/10/25 06:03:43;;;;;;;8.75;1.70;;;23.80;99.90;;;;;;5028485;28;20029;-60
2022/10/25 06:06:15;;;;;;;7.03;1.73;;;23.60;99.90;;;;;;5033327;28;20076;-60
2022/10/25 06:08:43;;;;;;;4.32;1.80;;;23.40;99.90;;;;;;5025266;28;20108;-60
2022/10/25 06:11:13;;;;;;;5.95;1.48;;;23.30;99.90;;;;;;5030674;28;20036;-60
2022/10/25 06:13:41;;;;;;;6.07;1.42;;;23.50;99.90;;;;;;5023865;28;20092;-60
2022/10/25 06:16:14;;;;;;;7.28;1.50;;;23.60;99.90;;;;;;5023008;28;20096;-60
2022/10/25 06:18:42;;;;;;;4.80;1.20;;;23.70;99.90;;;;;;5025998;28;20705;-60
2022/10/25 06:21:13;;;;;;;3.90;1.23;;;23.60;99.90;;;;;;5027000;28;20278;-61
2022/10/25 06:23:41;;;;;;;5.47;1.70;;;23.40;99.90;;;;;;5032952;28;20021;-61
2022/10/25 06:26:14;;;;;;;3.40;1.67;;;23.20;99.90;;;;;;5030860;28;20026;-60
2022/10/25 06:28:42;;;;;;;4.00;1.58;;;23.10;99.90;;;;;;5024489;28;20477;-60
2022/10/25 06:31:12;;;;;;;3.45;1.42;;;23.10;99.90;;;;;;5033884;28;20029;-59
2022/10/25 06:33:40;;;;;;;3.38;1.83;;;22.90;99.90;;;;;;5026973;28;20037;-60
2022/10/25 06:36:14;;;;;;;6.25;1.92;;;22.70;99.90;;;;;;5009488;28;20064;-60
2022/10/25 06:38:42;;;;;;;3.70;1.48;;;22.80;99.90;;;;;;5027905;28;20026;-60
2022/10/25 06:41:23;;;;;;;5.85;2.53;;;22.80;99.90;;;;;;5025204;28;20037;-60
2022/10/25 06:43:51;;;;;;;6.40;1.75;;;23.00;99.90;;;;;;5030330;28;20029;-60
2022/10/25 06:46:31;;;;;;;4.00;1.60;;;23.20;99.90;;;;;;5028653;28;20095;-60
2022/10/25 06:49:00;;;;;;;8.05;2.13;;;23.40;99.90;;;;;;5018120;28;20029;-61
2022/10/25 06:51:29;;;;;;;9.30;2.20;;;23.50;99.90;;;;;;5023581;28;20095;-60
2022/10/25 06:53:59;;;;;;;6.38;1.40;;;23.70;99.90;;;;;;5023920;28;20084;-60
2022/10/25 06:56:27;;;;;;;3.40;1.30;;;23.90;99.90;;;;;;5026790;28;20466;-60
2022/10/25 06:58:55;;;;;;;5.45;1.90;;;24.10;99.90;;;;;;5024327;28;20025;-60
2022/10/25 07:01:24;;;;;;;4.65;1.70;;;24.20;99.60;;;;;;5025652;28;20026;-60
2022/10/25 07:03:55;;;;;;;9.35;2.83;;;24.30;98.40;;;;;;5026563;28;20025;-60
2022/10/25 07:06:39;;;;;;;4.28;1.70;;;24.30;97.50;;;;;;5034157;28;20022;-60
2022/10/25 07:09:08;;;;;;;3.97;1.13;;;24.10;98.00;;;;;;5018976;28;20052;-60
2022/10/25 07:11:36;;;;;;;5.90;1.52;;;23.90;98.50;;;;;;5027162;28;20032;-60
2022/10/25 07:14:03;;;;;;;5.80;1.63;;;23.60;99.70;;;;;;5036918;28;20030;-63
2022/10/25 07:16:31;;;;;;;4.65;1.30;;;23.50;99.90;;;;;;5027408;28;20024;-61
2022/10/25 07:19:00;;;;;;;4.43;1.70;;;23.20;99.90;;;;;;5026310;28;20037;-61
2022/10/25 07:21:28;;;;;;;5.10;1.70;;;22.90;99.90;;;;;;5028798;28;20033;-59
2022/10/25 07:23:55;;;;;;;7.55;2.00;;;22.60;99.90;;;;;;5025848;28;20677;-61
2022/10/25 07:26:25;;;;;;;5.35;1.90;;;22.50;99.90;;;;;;5032691;28;20083;-60
2022/10/25 07:28:54;;;;;;;5.25;2.00;;;22.30;99.90;;;;;;5033337;28;20029;-61
2022/10/25 07:31:29;;;;;;;3.75;1.92;;;22.10;99.90;;;;;;5027915;28;20025;-58
2022/10/25 07:33:59;;;;;;;8.48;2.80;;;22.00;99.90;;;;;;5029206;28;20041;-59
2022/10/25 07:36:26;;;;;;;4.00;2.10;;;21.80;99.90;;;;;;5031276;28;20026;-59
2022/10/25 07:38:55;;;;;;;3.78;1.70;;;21.70;99.90;;;;;;5038043;28;20052;-59
2022/10/25 07:41:22;;;;;;;3.15;1.50;;;21.70;99.90;;;;;;5031934;28;20414;-59
2022/10/25 07:43:50;;;;;;;2.90;1.60;;;21.60;99.90;;;;;;5032448;28;20025;-59
2022/10/25 07:46:17;;;;;;;3.95;1.85;;;21.60;99.90;;;;;;5026694;28;20437;-60
2022/10/25 07:48:44;;;;;;;3.85;1.83;;;21.60;99.90;;;;;;5029670;28;20454;-59
2022/10/25 07:51:13;;;;;;;6.45;1.90;;;21.60;99.90;;;;;;5025960;28;20156;-61
2022/10/25 07:53:41;;;;;;;5.75;1.90;;;21.70;99.90;;;;;;5038412;28;20077;-61
2022/10/25 07:56:17;;;;;;;5.07;1.95;;;21.80;99.90;;;;;;5036692;28;20029;-59
2022/10/25 07:58:44;;;;;;;6.50;2.10;;;21.90;99.90;;;;;;5030242;28;20180;-61
2022/10/25 08:01:14;;;;;;;5.68;1.55;;;21.90;99.90;;;;;;5034382;28;20463;-60
2022/10/25 08:03:41;;;;;;;4.97;1.75;;;21.90;99.90;;;;;;5033471;28;20021;-60
2022/10/25 08:06:08;;;;;;;4.18;1.75;;;21.90;99.90;;;;;;5032953;28;20373;-60
2022/10/25 08:08:36;;;;;;;5.18;1.80;;;21.90;99.90;;;;;;5041427;28;20025;-59
2022/10/25 08:11:07;;;;;;;4.65;1.48;;;21.80;99.90;;;;;;5027021;28;20037;-65
2022/10/25 08:13:35;;;;;;;5.07;1.80;;;21.80;99.90;;;;;;5033862;28;20053;-64
2022/10/25 08:16:03;;;;;;;2.70;1.88;;;21.70;99.90;;;;;;5026900;28;20032;-62
2022/10/25 08:18:30;;;;;;;3.40;1.58;;;21.60;99.90;;;;;;5033104;28;20025;-62
2022/10/25 08:20:57;;;;;;;4.20;2.22;;;21.60;99.90;;;;;;5026534;28;20021;-62
2022/10/25 08:23:25;;;;;;;6.57;2.13;;;21.50;99.90;;;;;;5018906;28;20430;-62
2022/10/25 08:25:52;;;;;;;4.28;2.03;;;21.40;99.90;;;;;;5023453;28;20026;-62
2022/10/25 08:28:20;;;;;;;4.30;2.42;;;21.30;99.90;;;;;;5043159;28;20029;-61
2022/10/25 08:30:47;;;;;;;11.90;2.42;;;21.20;99.90;;;;;;5025930;28;20088;-63
2022/10/25 08:33:14;;;;;;;5.35;2.10;;;21.00;99.90;;;;;;5019298;28;20042;-63
2022/10/25 08:35:41;;;;;;;5.40;2.33;;;20.90;99.90;;;;;;5024200;28;20025;-63
2022/10/25 08:38:09;;;;;;;9.18;3.17;;;20.80;99.90;;;;;;5021903;28;20041;-63
2022/10/25 08:40:48;;;;;;;6.95;2.78;;;20.60;99.90;;;;;;5025486;28;20071;-63
2022/10/25 08:43:30;;;;;;;6.38;2.42;;;20.40;99.90;;;;;;5025006;28;20044;-63
2022/10/25 08:46:12;;;;;;;4.28;2.45;;;20.30;99.90;;;;;;5023939;28;20033;-63
2022/10/25 08:48:48;;;;;;;4.68;2.83;;;20.10;99.90;;;;;;5018694;28;20029;-62
2022/10/25 08:51:30;;;;;;;6.40;3.25;;;20.00;99.90;;;;;;5023626;28;20046;-63
2022/10/25 08:54:17;;;;;;;4.43;3.03;;;19.90;99.90;;;;;;5028768;28;20076;-63
2022/10/25 08:56:45;;;;;;;4.80;3.50;;;19.90;99.90;;;;;;5018858;28;20021;-63
2022/10/25 08:59:19;;;;;;;8.05;3.53;;;19.80;99.90;;;;;;5033527;28;20308;-63
2022/10/25 09:01:55;;;;;;;7.30;3.80;;;19.80;99.90;;;;;;5029215;28;20211;-63
2022/10/25 09:04:23;;;;;;;14.10;4.53;;;19.80;99.90;;;;;;5029148;28;20038;-63
2022/10/25 09:07:26;;;;;;;8.27;4.65;;;19.70;99.90;;;;;;5025210;28;20029;-62
2022/10/25 09:10:34;;;;;;;6.30;4.35;;;19.70;99.90;;;;;;5028117;28;20029;-63
2022/10/25 09:13:25;;;;;;;6.28;4.15;;;19.70;99.90;;;;;;5023560;28;20102;-63
2022/10/25 09:16:18;;;;;;;8.73;5.50;;;19.70;99.90;;;;;;5030191;28;20041;-63
2022/10/25 09:18:53;;;;;;;6.63;4.85;;;19.60;99.90;;;;;;5011359;28;20049;-63
2022/10/25 09:21:39;;;;;;;7.80;4.68;;;19.40;99.90;;;;;;5031891;28;20029;-63
2022/10/25 09:24:27;;;;;;;10.38;5.38;;;19.30;99.90;;;;;;5020099;28;20035;-63
2022/10/25 09:27:13;;;;;;;7.82;4.57;;;19.30;99.90;;;;;;5024299;28;20088;-64
2022/10/25 09:29:52;;;;;;;6.20;4.10;;;19.30;99.90;;;;;;5026636;28;20075;-65
2022/10/25 09:32:35;;;;;;;8.63;4.68;;;19.10;99.90;;;;;;5026174;28;20048;-63
2022/10/25 09:35:05;;;;;;;9.48;5.65;;;19.00;99.90;;;;;;5025933;28;20790;-64
2022/10/25 09:37:46;;;;;;;7.78;5.90;;;18.90;99.90;;;;;;5026423;28;20120;-63
2022/10/25 09:40:20;;;;;;;8.45;5.88;;;18.80;99.90;;;;;;5026403;28;20036;-63
2022/10/25 09:43:16;;;;;;;13.10;6.63;;;18.80;99.90;;;;;;5039464;28;20029;-63
2022/10/25 09:45:56;;;;;;;;;;;18.80;99.90;;;;;;5019745;28;20037;-63
2022/10/25 09:48:26;;;;;;;7.55;5.65;;;18.80;99.90;;;;;;5025749;28;19909;-63
2022/10/25 09:51:14;;;;;;;12.68;5.25;;;18.80;99.90;;;;;;5023913;28;20029;-63
2022/10/25 09:53:44;;;;;;;9.52;5.25;;;18.80;99.90;;;;;;5033273;28;20106;-63
2022/10/25 09:56:11;;;;;;;13.77;5.30;;;18.70;99.90;;;;;;5027518;28;20032;-64
2022/10/25 09:58:49;;;;;;;14.48;6.45;;;18.70;99.90;;;;;;5031696;28;20032;-63
2022/10/25 10:01:28;;;;;;;11.27;5.43;;;18.80;99.90;;;;;;5035921;28;20326;-64
2022/10/25 10:04:19;;;;;;;11.13;4.78;;;18.80;99.90;;;;;;5037548;28;20025;-62
2022/10/25 10:06:47;;;;;;;13.02;7.18;;;18.90;99.90;;;;;;5018384;28;20083;-64
2022/10/25 10:09:16;;;;;;;12.63;6.53;;;19.00;99.90;;;;;;5026534;28;20083;-63
2022/10/25 10:11:46;;;;;;;12.27;5.88;;;19.00;99.90;;;;;;5040108;28;20043;-62
2022/10/25 10:14:55;;;;;;;;;;;;;;;;;;;;;
2022/10/25 10:17:24;;;;;;;7.32;4.05;;;19.10;99.90;;;;;;5027328;28;20013;-64
2022/10/25 10:20:08;;;;;;;9.68;4.22;;;19.10;99.90;;;;;;5026603;28;20510;-63
2022/10/25 10:22:49;;;;;;;8.18;4.72;;;19.10;99.90;;;;;;5027337;28;20520;-64
2022/10/25 10:25:27;;;;;;;9.80;4.15;;;19.10;99.90;;;;;;5025821;28;20095;-63
2022/10/25 10:27:57;;;;;;;12.43;4.20;;;19.10;99.90;;;;;;5026101;28;20033;-63
2022/10/25 10:30:30;;;;;;;16.67;4.78;;;19.20;99.90;;;;;;5025662;28;20037;-63
2022/10/25 10:33:00;;;;;;;17.92;4.85;;;19.20;99.90;;;;;;5027238;28;20061;-63
2022/10/25 10:35:34;;;;;;;12.82;5.65;;;19.20;99.90;;;;;;5027129;28;20482;-63
2022/10/25 10:38:21;;;;;;;11.70;5.07;;;19.20;99.90;;;;;;5028948;28;20025;-63
2022/10/25 10:40:50;;;;;;;15.40;4.38;;;19.20;99.90;;;;;;5029141;28;20064;-63
2022/10/25 10:43:29;;;;;;;15.57;5.22;;;19.20;99.90;;;;;;5029223;28;20053;-64
2022/10/25 10:46:02;;;;;;;12.05;6.75;;;19.20;99.90;;;;;;5029268;28;20026;-63
2022/10/25 10:48:34;;;;;;;11.57;6.28;;;19.20;99.90;;;;;;5025436;28;20056;-63
2022/10/25 10:51:02;;;;;;;9.32;4.68;;;19.20;99.90;;;;;;5029235;28;20080;-63
2022/10/25 10:53:31;;;;;;;13.73;5.97;;;19.20;99.90;;;;;;5028101;28;20037;-62
2022/10/25 10:56:04;;;;;;;11.07;5.38;;;19.20;99.90;;;;;;5027260;28;20512;-61
2022/10/25 10:58:34;;;;;;;10.35;5.93;;;19.20;99.90;;;;;;5027175;28;20025;-61
2022/10/25 11:01:15;;;;;;;6.80;5.20;;;19.20;99.90;;;;;;5028555;28;20057;-61
2022/10/25 11:03:42;;;;;;;9.98;4.63;;;19.20;99.90;;;;;;5027850;28;20390;-61
2022/10/25 11:06:28;;;;;;;9.75;4.60;;;19.20;99.90;;;;;;5026632;28;20682;-60
2022/10/25 11:09:04;;;;;;;6.82;5.05;;;19.20;99.90;;;;;;5023205;28;20029;-62
2022/10/25 11:11:32;;;;;;;10.23;5.00;;;19.20;99.90;;;;;;5029315;28;20028;-62
2022/10/25 11:14:01;;;;;;;7.35;4.28;;;19.10;99.90;;;;;;5028991;28;20484;-62
2022/10/25 11:16:49;;;;;;;10.68;4.57;;;19.00;99.90;;;;;;5027520;28;20474;-61
2022/10/25 11:19:25;;;;;;;7.15;4.25;;;19.00;99.90;;;;;;5026360;28;20576;-62
2022/10/25 11:22:28;;;;;;;7.63;4.63;;;18.90;99.90;;;;;;5025334;28;20063;-61
2022/10/25 11:25:31;;;;;;;7.65;4.57;;;18.90;99.90;;;;;;5029963;28;20244;-61
2022/10/25 11:28:21;;;;;;;10.35;5.05;;;18.80;99.90;;;;;;5022270;28;20033;-61
2022/10/25 11:30:57;;;;;;;8.48;5.07;;;18.80;99.90;;;;;;5024962;28;20417;-63
2022/10/25 11:33:32;;;;;;;12.13;5.72;;;18.80;99.90;;;;;;5026739;28;20113;-60
2022/10/25 11:36:16;;;;;;;8.98;4.75;;;18.70;99.90;;;;;;5025620;28;20036;-60
2022/10/25 11:39:14;;;;;;;7.28;4.82;;;18.70;99.90;;;;;;5026594;28;20076;-61
2022/10/25 11:41:49;;;;;;;7.78;4.78;;;18.70;99.90;;;;;;5024690;28;20022;-59
2022/10/25 11:44:19;;;;;;;9.15;5.22;;;18.60;99.90;;;;;;5025542;28;20493;-61
2022/10/25 11:47:04;;;;;;;10.52;5.53;;;18.70;99.90;;;;;;5027679;28;20036;-61
2022/10/25 11:49:54;;;;;;;8.43;5.22;;;18.60;99.90;;;;;;5028183;28;20021;-61
2022/10/25 11:52:37;;;;;;;7.80;4.68;;;18.60;99.90;;;;;;5027160;28;20061;-61
2022/10/25 11:55:15;;;;;;;7.38;4.60;;;18.60;99.90;;;;;;5028996;28;20156;-62
2022/10/25 11:58:23;;;;;;;11.40;5.50;;;18.60;99.90;;;;;;5033404;28;20032;-61
2022/10/25 12:01:17;;;;;;;7.32;5.05;;;18.60;99.90;;;;;;5015085;28;20087;-60
2022/10/25 12:04:12;;;;;;;10.07;4.72;;;18.60;99.90;;;;;;5029128;28;20119;-60
2022/10/25 12:06:50;;;;;;;;;;;18.60;99.90;;;;;;5029481;28;20032;-61
2022/10/25 12:09:32;;;;;;;8.38;4.63;;;18.60;99.90;;;;;;5030283;28;19935;-60
2022/10/25 12:12:12;;;;;;;8.45;4.68;;;18.60;99.90;;;;;;5030297;28;20029;-60
2022/10/25 12:14:44;;;;;;;9.05;4.95;;;18.60;99.90;;;;;;5029436;28;20021;-60
2022/10/25 12:17:33;;;;;;;10.90;6.15;;;18.60;99.90;;;;;;5029747;28;20025;-60
2022/10/25 12:20:05;;;;;;;14.20;6.20;;;18.50;99.90;;;;;;5038742;28;20040;-60
2022/10/25 12:22:42;;;;;;;10.27;5.50;;;18.50;99.90;;;;;;5028723;28;20026;-60
2022/10/25 12:25:25;;;;;;;11.07;5.75;;;18.50;99.90;;;;;;5039556;28;20025;-60
2022/10/25 12:28:11;;;;;;;8.57;6.20;;;18.50;99.90;;;;;;5028659;28;20025;-60
2022/10/25 12:30:40;;;;;;;12.82;6.05;;;18.50;99.90;;;;;;5029522;28;20026;-61
2022/10/25 12:33:10;;;;;;;8.35;5.13;;;18.40;99.90;;;;;;5025323;28;20041;-61
2022/10/25 12:35:49;;;;;;;8.18;5.28;;;18.40;99.90;;;;;;5029404;28;20026;-60
2022/10/25 12:38:38;;;;;;;11.82;4.65;;;18.40;99.90;;;;;;5029497;28;20100;-60
2022/10/25 12:41:19;;;;;;;9.15;5.07;;;18.30;99.90;;;;;;5028664;28;20079;-61
2022/10/25 12:43:54;;;;;;;9.40;5.07;;;18.30;99.90;;;;;;5027310;28;20026;-60
2022/10/25 12:46:33;;;;;;;13.10;5.93;;;18.20;99.90;;;;;;5027798;28;20017;-60
2022/10/25 12:49:19;;;;;;;7.20;4.93;;;18.10;99.90;;;;;;5029892;28;20033;-60
2022/10/25 12:52:08;;;;;;;10.27;4.43;;;18.10;99.90;;;;;;5027584;28;20040;-60
2022/10/25 12:54:35;;;;;;;12.63;4.25;;;18.10;99.90;;;;;;5026704;28;20179;-61
2022/10/25 12:57:40;;;;;;;7.07;3.95;;;18.10;99.90;;;;;;5027678;28;20057;-60
2022/10/25 13:00:13;;;;;;;7.43;3.95;;;18.10;99.90;;;;;;5026318;28;20041;-60
2022/10/25 13:02:40;;;;;;;7.95;3.85;;;18.10;99.90;;;;;;5026777;28;20557;-60
2022/10/25 13:05:28;;;;;;;7.30;3.58;;;18.10;99.90;;;;;;5026364;28;20037;-60
2022/10/25 13:08:00;;;;;;;5.78;3.50;;;18.10;99.90;;;;;;5024153;28;20719;-60
2022/10/25 13:10:31;;;;;;;5.43;3.40;;;18.10;99.90;;;;;;5030205;28;20355;-60
2022/10/25 13:13:14;;;;;;;5.82;3.10;;;18.00;99.90;;;;;;5026607;28;20057;-60
2022/10/25 13:15:51;;;;;;;3.70;2.92;;;18.10;99.90;;;;;;5023224;28;20029;-60
2022/10/25 13:18:46;;;;;;;4.22;2.65;;;18.00;99.90;;;;;;5025841;28;20049;-60
2022/10/25 13:21:12;;;;;;;;;;;18.00;99.90;;;;;;5023947;28;20048;-60